Durand, Kansas
Current Conditions -  °F | °C
As of 11:52 PM on Wednesday 22 Oct 2014 (Local Time) from KCNU Reporting Station
Scattered Clouds Scattered Clouds  
Wind Chill: 62°   Ceiling: Unl
Heat Index: 62°   Visibility: 10mi
Dew Point: 59°   Wind: 8mph
Humidity: 90%   Direction: 150°SSE
Pressure: 30.11"   Gusts: NA
Location:  37.893°N, 95.7469°W
Report Text: KCNU 230452Z AUTO 15007KT 10SM SCT048 17/15 A3011 RMK AO2 SLP191 T01670150
Loading
Personal Weather Stations






























Interactive Weather Map
Tropical Storm Tracking
New forecast layout! Learn more

10-Day Weather Forecast

Advertisements
Track Severe Weather on mobile